sensor_id;sensor_type;location;lat;lon;timestamp;temperature;humidity
25640;DHT22;13497;48.322;16.204;2024-03-17T00:02:22;10.90;99.90
25640;DHT22;13497;48.322;16.204;2024-03-17T00:04:47;10.90;99.90
25640;DHT22;13497;48.322;16.204;2024-03-17T00:07:13;10.80;99.90
25640;DHT22;13497;48.322;16.204;2024-03-17T00:09:40;10.80;99.90
25640;DHT22;13497;48.322;16.204;2024-03-17T00:12:06;10.70;99.90
25640;DHT22;13497;48.322;16.204;2024-03-17T00:14:33;10.60;99.90
25640;DHT22;13497;48.322;16.204;2024-03-17T00:17:00;10.60;99.90
25640;DHT22;13497;48.322;16.204;2024-03-17T00:19:26;10.60;99.90
25640;DHT22;13497;48.322;16.204;2024-03-17T00:21:51;10.60;99.90
25640;DHT22;13497;48.322;16.204;2024-03-17T00:24:18;10.60;99.90
25640;DHT22;13497;48.322;16.204;2024-03-17T00:26:45;10.60;99.90
25640;DHT22;13497;48.322;16.204;2024-03-17T00:29:11;10.60;99.90
25640;DHT22;13497;48.322;16.204;2024-03-17T00:31:36;10.50;99.90
25640;DHT22;13497;48.322;16.204;2024-03-17T00:34:02;10.50;99.90
25640;DHT22;13497;48.322;16.204;2024-03-17T00:36:29;10.50;99.90
25640;DHT22;13497;48.322;16.204;2024-03-17T00:38:55;10.40;99.90
25640;DHT22;13497;48.322;16.204;2024-03-17T00:41:22;10.40;99.90
25640;DHT22;13497;48.322;16.204;2024-03-17T00:43:47;10.40;99.90
25640;DHT22;13497;48.322;16.204;2024-03-17T00:46:13;10.40;99.90
25640;DHT22;13497;48.322;16.204;2024-03-17T00:48:39;10.30;99.90
25640;DHT22;13497;48.322;16.204;2024-03-17T00:51:05;10.30;99.90
25640;DHT22;13497;48.322;16.204;2024-03-17T00:53:30;10.30;99.90
25640;DHT22;13497;48.322;16.204;2024-03-17T00:55:56;10.30;99.90
25640;DHT22;13497;48.322;16.204;2024-03-17T00:58:26;10.40;99.90
25640;DHT22;13497;48.322;16.204;2024-03-17T01:00:52;10.40;99.90
25640;DHT22;13497;48.322;16.204;2024-03-17T01:03:18;10.40;99.90
25640;DHT22;13497;48.322;16.204;2024-03-17T01:05:44;10.40;99.90
25640;DHT22;13497;48.322;16.204;2024-03-17T01:08:15;10.50;99.90
25640;DHT22;13497;48.322;16.204;2024-03-17T01:10:41;10.50;99.90
25640;DHT22;13497;48.322;16.204;2024-03-17T01:13:07;10.40;99.90
25640;DHT22;13497;48.322;16.204;2024-03-17T01:15:38;10.40;99.90
25640;DHT22;13497;48.322;16.204;2024-03-17T01:18:04;10.40;99.90
25640;DHT22;13497;48.322;16.204;2024-03-17T01:20:37;10.50;99.90
25640;DHT22;13497;48.322;16.204;2024-03-17T01:23:04;10.50;99.90
25640;DHT22;13497;48.322;16.204;2024-03-17T01:25:29;10.50;99.90
25640;DHT22;13497;48.322;16.204;2024-03-17T01:27:56;10.30;99.90
25640;DHT22;13497;48.322;16.204;2024-03-17T01:30:22;10.30;99.90
25640;DHT22;13497;48.322;16.204;2024-03-17T01:32:49;10.20;99.90
25640;DHT22;13497;48.322;16.204;2024-03-17T01:35:15;10.20;99.90
25640;DHT22;13497;48.322;16.204;2024-03-17T01:37:42;10.20;99.90
25640;DHT22;13497;48.322;16.204;2024-03-17T01:40:08;10.20;99.90
25640;DHT22;13497;48.322;16.204;2024-03-17T01:42:35;10.10;99.90
25640;DHT22;13497;48.322;16.204;2024-03-17T01:45:00;10.00;99.90
25640;DHT22;13497;48.322;16.204;2024-03-17T01:47:26;10.00;99.90
25640;DHT22;13497;48.322;16.204;2024-03-17T01:49:53;10.00;99.90
25640;DHT22;13497;48.322;16.204;2024-03-17T01:52:20;9.90;99.90
25640;DHT22;13497;48.322;16.204;2024-03-17T01:54:46;9.90;99.90
25640;DHT22;13497;48.322;16.204;2024-03-17T01:57:13;9.90;99.90
25640;DHT22;13497;48.322;16.204;2024-03-17T01:59:39;9.90;99.90
25640;DHT22;13497;48.322;16.204;2024-03-17T02:02:05;9.80;99.90
25640;DHT22;13497;48.322;16.204;2024-03-17T02:04:31;9.80;99.90
25640;DHT22;13497;48.322;16.204;2024-03-17T02:06:57;9.70;99.90
25640;DHT22;13497;48.322;16.204;2024-03-17T02:09:22;9.60;99.90
25640;DHT22;13497;48.322;16.204;2024-03-17T02:11:48;9.50;99.90
25640;DHT22;13497;48.322;16.204;2024-03-17T02:14:14;9.40;99.90
25640;DHT22;13497;48.322;16.204;2024-03-17T02:16:43;9.30;99.90
25640;DHT22;13497;48.322;16.204;2024-03-17T02:19:08;9.30;99.90
25640;DHT22;13497;48.322;16.204;2024-03-17T02:21:34;9.20;99.90
25640;DHT22;13497;48.322;16.204;2024-03-17T02:24:00;9.20;99.90
25640;DHT22;13497;48.322;16.204;2024-03-17T02:26:28;9.10;99.90
25640;DHT22;13497;48.322;16.204;2024-03-17T02:28:53;9.20;99.90
25640;DHT22;13497;48.322;16.204;2024-03-17T02:31:19;9.20;99.90
25640;DHT22;13497;48.322;16.204;2024-03-17T02:33:45;9.10;99.90
25640;DHT22;13497;48.322;16.204;2024-03-17T02:36:12;9.20;99.90
25640;DHT22;13497;48.322;16.204;2024-03-17T02:38:39;9.10;99.90
25640;DHT22;13497;48.322;16.204;2024-03-17T02:41:23;9.00;99.90
25640;DHT22;13497;48.322;16.204;2024-03-17T02:43:49;9.10;99.90
25640;DHT22;13497;48.322;16.204;2024-03-17T02:46:17;9.10;99.90
25640;DHT22;13497;48.322;16.204;2024-03-17T02:48:45;9.00;99.90
25640;DHT22;13497;48.322;16.204;2024-03-17T02:51:17;8.90;99.90
25640;DHT22;13497;48.322;16.204;2024-03-17T02:53:45;8.90;99.90
25640;DHT22;13497;48.322;16.204;2024-03-17T02:56:12;8.90;99.90
25640;DHT22;13497;48.322;16.204;2024-03-17T02:58:38;8.80;99.90
25640;DHT22;13497;48.322;16.204;2024-03-17T03:01:05;8.80;99.90
25640;DHT22;13497;48.322;16.204;2024-03-17T03:03:31;8.80;99.90
25640;DHT22;13497;48.322;16.204;2024-03-17T03:05:57;8.80;99.90
25640;DHT22;13497;48.322;16.204;2024-03-17T03:08:23;8.70;99.90
25640;DHT22;13497;48.322;16.204;2024-03-17T03:10:50;8.60;99.90
25640;DHT22;13497;48.322;16.204;2024-03-17T03:13:16;8.60;99.90
25640;DHT22;13497;48.322;16.204;2024-03-17T03:15:41;8.40;99.90
25640;DHT22;13497;48.322;16.204;2024-03-17T03:18:07;8.30;99.90
25640;DHT22;13497;48.322;16.204;2024-03-17T03:20:34;8.30;99.90
25640;DHT22;13497;48.322;16.204;2024-03-17T03:23:00;8.20;99.90
25640;DHT22;13497;48.322;16.204;2024-03-17T03:25:26;8.10;99.90
25640;DHT22;13497;48.322;16.204;2024-03-17T03:27:52;8.00;99.90
25640;DHT22;13497;48.322;16.204;2024-03-17T03:30:18;7.90;99.90
25640;DHT22;13497;48.322;16.204;2024-03-17T03:32:46;7.90;99.90
25640;DHT22;13497;48.322;16.204;2024-03-17T03:35:13;7.90;99.90
25640;DHT22;13497;48.322;16.204;2024-03-17T03:37:40;7.90;99.90
25640;DHT22;13497;48.322;16.204;2024-03-17T03:40:05;7.90;99.90
25640;DHT22;13497;48.322;16.204;2024-03-17T03:42:44;8.00;99.90
25640;DHT22;13497;48.322;16.204;2024-03-17T03:45:10;8.00;99.90
25640;DHT22;13497;48.322;16.204;2024-03-17T03:47:42;8.10;99.90
25640;DHT22;13497;48.322;16.204;2024-03-17T03:50:14;8.00;99.90
25640;DHT22;13497;48.322;16.204;2024-03-17T03:52:40;7.90;99.90
25640;DHT22;13497;48.322;16.204;2024-03-17T03:55:07;7.70;99.90
25640;DHT22;13497;48.322;16.204;2024-03-17T03:57:36;7.60;99.90
25640;DHT22;13497;48.322;16.204;2024-03-17T04:00:03;7.60;99.90
25640;DHT22;13497;48.322;16.204;2024-03-17T04:02:42;7.60;99.90
25640;DHT22;13497;48.322;16.204;2024-03-17T04:05:09;7.40;99.90
25640;DHT22;13497;48.322;16.204;2024-03-17T04:07:34;7.40;99.90
25640;DHT22;13497;48.322;16.204;2024-03-17T04:10:02;7.20;99.90
25640;DHT22;13497;48.322;16.204;2024-03-17T04:12:27;7.20;99.90
25640;DHT22;13497;48.322;16.204;2024-03-17T04:14:53;7.10;99.90
25640;DHT22;13497;48.322;16.204;2024-03-17T04:17:20;7.10;99.90
25640;DHT22;13497;48.322;16.204;2024-03-17T04:19:47;7.00;99.90
25640;DHT22;13497;48.322;16.204;2024-03-17T04:22:14;6.90;99.90
25640;DHT22;13497;48.322;16.204;2024-03-17T04:24:40;6.90;99.90
25640;DHT22;13497;48.322;16.204;2024-03-17T04:27:06;6.90;99.90
25640;DHT22;13497;48.322;16.204;2024-03-17T04:29:32;6.90;99.90
25640;DHT22;13497;48.322;16.204;2024-03-17T04:31:57;6.90;99.90
25640;DHT22;13497;48.322;16.204;2024-03-17T04:34:23;6.90;99.90
25640;DHT22;13497;48.322;16.204;2024-03-17T04:36:48;6.90;99.90
25640;DHT22;13497;48.322;16.204;2024-03-17T04:39:15;6.90;99.90
25640;DHT22;13497;48.322;16.204;2024-03-17T04:41:40;6.90;99.90
25640;DHT22;13497;48.322;16.204;2024-03-17T04:44:08;6.90;99.90
25640;DHT22;13497;48.322;16.204;2024-03-17T04:46:34;6.80;99.90
25640;DHT22;13497;48.322;16.204;2024-03-17T04:49:00;6.80;99.90
25640;DHT22;13497;48.322;16.204;2024-03-17T04:51:25;6.70;99.90
25640;DHT22;13497;48.322;16.204;2024-03-17T04:53:51;6.70;99.90
25640;DHT22;13497;48.322;16.204;2024-03-17T04:56:16;6.80;99.90
25640;DHT22;13497;48.322;16.204;2024-03-17T04:58:42;6.80;99.90
25640;DHT22;13497;48.322;16.204;2024-03-17T05:01:09;6.80;99.90
25640;DHT22;13497;48.322;16.204;2024-03-17T05:03:35;6.80;99.90
25640;DHT22;13497;48.322;16.204;2024-03-17T05:06:02;6.80;99.90
25640;DHT22;13497;48.322;16.204;2024-03-17T05:08:29;6.80;99.90
25640;DHT22;13497;48.322;16.204;2024-03-17T05:11:05;6.80;99.90
25640;DHT22;13497;48.322;16.204;2024-03-17T05:13:32;6.70;99.90
25640;DHT22;13497;48.322;16.204;2024-03-17T05:16:00;6.70;99.90
25640;DHT22;13497;48.322;16.204;2024-03-17T05:18:26;6.60;99.90
25640;DHT22;13497;48.322;16.204;2024-03-17T05:21:03;6.50;99.90
25640;DHT22;13497;48.322;16.204;2024-03-17T05:23:30;6.50;99.90
25640;DHT22;13497;48.322;16.204;2024-03-17T05:25:57;6.50;99.90
25640;DHT22;13497;48.322;16.204;2024-03-17T05:28:24;6.60;99.90
25640;DHT22;13497;48.322;16.204;2024-03-17T05:30:49;6.60;99.90
25640;DHT22;13497;48.322;16.204;2024-03-17T05:33:18;6.60;99.90
25640;DHT22;13497;48.322;16.204;2024-03-17T05:35:55;6.60;99.90
25640;DHT22;13497;48.322;16.204;2024-03-17T05:38:21;6.60;99.90
25640;DHT22;13497;48.322;16.204;2024-03-17T05:41:01;6.60;99.90
25640;DHT22;13497;48.322;16.204;2024-03-17T05:43:28;6.60;99.90
25640;DHT22;13497;48.322;16.204;2024-03-17T05:45:58;6.60;99.90
25640;DHT22;13497;48.322;16.204;2024-03-17T05:48:24;6.60;99.90
25640;DHT22;13497;48.322;16.204;2024-03-17T05:50:50;6.70;99.90
25640;DHT22;13497;48.322;16.204;2024-03-17T05:53:19;6.80;99.90
25640;DHT22;13497;48.322;16.204;2024-03-17T05:55:45;6.90;99.90
25640;DHT22;13497;48.322;16.204;2024-03-17T05:58:11;7.00;99.90
25640;DHT22;13497;48.322;16.204;2024-03-17T06:00:40;7.20;99.90
25640;DHT22;13497;48.322;16.204;2024-03-17T06:03:06;7.30;99.90
25640;DHT22;13497;48.322;16.204;2024-03-17T06:05:36;7.40;99.90
25640;DHT22;13497;48.322;16.204;2024-03-17T06:08:03;7.40;99.90
25640;DHT22;13497;48.322;16.204;2024-03-17T06:10:30;7.50;99.90
25640;DHT22;13497;48.322;16.204;2024-03-17T06:12:56;7.50;99.90
25640;DHT22;13497;48.322;16.204;2024-03-17T06:15:23;7.50;99.90
25640;DHT22;13497;48.322;16.204;2024-03-17T06:17:50;7.60;99.90
25640;DHT22;13497;48.322;16.204;2024-03-17T06:20:24;7.70;99.90
25640;DHT22;13497;48.322;16.204;2024-03-17T06:22:55;7.80;99.90
25640;DHT22;13497;48.322;16.204;2024-03-17T06:25:22;8.00;99.90
25640;DHT22;13497;48.322;16.204;2024-03-17T06:27:51;8.10;99.90
25640;DHT22;13497;48.322;16.204;2024-03-17T06:30:17;8.20;99.90
25640;DHT22;13497;48.322;16.204;2024-03-17T06:32:44;8.40;99.90
25640;DHT22;13497;48.322;16.204;2024-03-17T06:35:13;8.50;99.90
25640;DHT22;13497;48.322;16.204;2024-03-17T06:37:46;8.60;99.90
25640;DHT22;13497;48.322;16.204;2024-03-17T06:40:14;8.70;99.90
25640;DHT22;13497;48.322;16.204;2024-03-17T06:42:40;8.80;99.90
25640;DHT22;13497;48.322;16.204;2024-03-17T06:45:06;8.80;99.90
25640;DHT22;13497;48.322;16.204;2024-03-17T06:47:35;8.80;99.90
25640;DHT22;13497;48.322;16.204;2024-03-17T06:50:04;8.90;99.90
25640;DHT22;13497;48.322;16.204;2024-03-17T06:52:30;8.90;99.90
25640;DHT22;13497;48.322;16.204;2024-03-17T06:54:59;8.90;99.90
25640;DHT22;13497;48.322;16.204;2024-03-17T06:57:26;8.90;99.90
25640;DHT22;13497;48.322;16.204;2024-03-17T06:59:52;8.80;99.90
25640;DHT22;13497;48.322;16.204;2024-03-17T07:02:17;8.80;99.90
25640;DHT22;13497;48.322;16.204;2024-03-17T07:04:45;8.80;99.90
25640;DHT22;13497;48.322;16.204;2024-03-17T07:07:12;8.80;99.90
25640;DHT22;13497;48.322;16.204;2024-03-17T07:09:38;8.90;99.90
25640;DHT22;13497;48.322;16.204;2024-03-17T07:12:08;9.00;99.90
25640;DHT22;13497;48.322;16.204;2024-03-17T07:14:35;9.10;99.90
25640;DHT22;13497;48.322;16.204;2024-03-17T07:17:01;9.10;99.90
25640;DHT22;13497;48.322;16.204;2024-03-17T07:19:26;9.10;99.90
25640;DHT22;13497;48.322;16.204;2024-03-17T07:21:52;9.00;99.90
25640;DHT22;13497;48.322;16.204;2024-03-17T07:24:19;9.10;99.90
25640;DHT22;13497;48.322;16.204;2024-03-17T07:26:45;9.00;99.90
25640;DHT22;13497;48.322;16.204;2024-03-17T07:29:12;9.00;99.90
25640;DHT22;13497;48.322;16.204;2024-03-17T07:31:38;9.10;99.90
25640;DHT22;13497;48.322;16.204;2024-03-17T07:34:04;9.00;99.90
25640;DHT22;13497;48.322;16.204;2024-03-17T07:36:29;8.90;99.90
25640;DHT22;13497;48.322;16.204;2024-03-17T07:38:55;9.00;99.90
25640;DHT22;13497;48.322;16.204;2024-03-17T07:41:21;9.10;99.90
25640;DHT22;13497;48.322;16.204;2024-03-17T07:43:49;9.20;99.90
25640;DHT22;13497;48.322;16.204;2024-03-17T07:46:15;9.50;99.90
25640;DHT22;13497;48.322;16.204;2024-03-17T07:48:43;9.90;99.90
25640;DHT22;13497;48.322;16.204;2024-03-17T07:51:10;10.10;99.90
25640;DHT22;13497;48.322;16.204;2024-03-17T07:53:37;10.30;99.90
25640;DHT22;13497;48.322;16.204;2024-03-17T07:56:04;10.30;99.90
25640;DHT22;13497;48.322;16.204;2024-03-17T07:58:31;10.40;99.80
25640;DHT22;13497;48.322;16.204;2024-03-17T08:01:05;10.50;99.60
25640;DHT22;13497;48.322;16.204;2024-03-17T08:03:33;10.50;99.00
25640;DHT22;13497;48.322;16.204;2024-03-17T08:06:00;10.50;98.50
25640;DHT22;13497;48.322;16.204;2024-03-17T08:08:26;10.50;98.30
25640;DHT22;13497;48.322;16.204;2024-03-17T08:10:52;10.30;98.60
25640;DHT22;13497;48.322;16.204;2024-03-17T08:13:19;10.40;99.30
25640;DHT22;13497;48.322;16.204;2024-03-17T08:15:45;10.40;98.60
25640;DHT22;13497;48.322;16.204;2024-03-17T08:18:12;10.30;98.60
25640;DHT22;13497;48.322;16.204;2024-03-17T08:20:42;10.50;98.70
25640;DHT22;13497;48.322;16.204;2024-03-17T08:23:12;10.60;98.40
25640;DHT22;13497;48.322;16.204;2024-03-17T08:25:38;10.50;98.50
25640;DHT22;13497;48.322;16.204;2024-03-17T08:28:04;10.70;98.40
25640;DHT22;13497;48.322;16.204;2024-03-17T08:30:30;10.80;97.80
25640;DHT22;13497;48.322;16.204;2024-03-17T08:32:56;10.60;97.50
25640;DHT22;13497;48.322;16.204;2024-03-17T08:35:23;10.60;97.50
25640;DHT22;13497;48.322;16.204;2024-03-17T08:37:49;10.70;97.00
25640;DHT22;13497;48.322;16.204;2024-03-17T08:40:17;10.70;97.20
25640;DHT22;13497;48.322;16.204;2024-03-17T08:42:42;10.80;97.20
25640;DHT22;13497;48.322;16.204;2024-03-17T08:45:10;10.90;97.40
25640;DHT22;13497;48.322;16.204;2024-03-17T08:47:36;11.00;96.90
25640;DHT22;13497;48.322;16.204;2024-03-17T08:50:02;11.10;96.50
25640;DHT22;13497;48.322;16.204;2024-03-17T08:52:33;11.00;95.80
25640;DHT22;13497;48.322;16.204;2024-03-17T08:54:59;11.10;96.20
25640;DHT22;13497;48.322;16.204;2024-03-17T08:57:25;11.10;96.20
25640;DHT22;13497;48.322;16.204;2024-03-17T08:59:51;11.00;96.30
25640;DHT22;13497;48.322;16.204;2024-03-17T09:02:20;11.00;96.50
25640;DHT22;13497;48.322;16.204;2024-03-17T09:04:46;11.10;96.90
25640;DHT22;13497;48.322;16.204;2024-03-17T09:07:12;11.30;96.50
25640;DHT22;13497;48.322;16.204;2024-03-17T09:09:41;11.50;95.40
25640;DHT22;13497;48.322;16.204;2024-03-17T09:12:06;11.40;94.90
25640;DHT22;13497;48.322;16.204;2024-03-17T09:14:32;11.30;95.20
25640;DHT22;13497;48.322;16.204;2024-03-17T09:16:59;11.30;94.90
25640;DHT22;13497;48.322;16.204;2024-03-17T09:19:25;11.20;94.70
25640;DHT22;13497;48.322;16.204;2024-03-17T09:21:50;11.10;94.80
25640;DHT22;13497;48.322;16.204;2024-03-17T09:24:16;11.00;94.60
25640;DHT22;13497;48.322;16.204;2024-03-17T09:26:42;10.90;94.80
25640;DHT22;13497;48.322;16.204;2024-03-17T09:29:07;11.00;95.00
25640;DHT22;13497;48.322;16.204;2024-03-17T09:31:33;11.00;95.20
25640;DHT22;13497;48.322;16.204;2024-03-17T09:34:01;11.20;95.00
25640;DHT22;13497;48.322;16.204;2024-03-17T09:36:27;11.30;95.00
25640;DHT22;13497;48.322;16.204;2024-03-17T09:38:53;11.40;94.70
25640;DHT22;13497;48.322;16.204;2024-03-17T09:41:25;11.40;95.10
25640;DHT22;13497;48.322;16.204;2024-03-17T09:43:55;11.40;94.50
25640;DHT22;13497;48.322;16.204;2024-03-17T09:46:25;11.20;94.40
25640;DHT22;13497;48.322;16.204;2024-03-17T09:48:55;11.00;94.70
25640;DHT22;13497;48.322;16.204;2024-03-17T09:51:24;10.90;94.60
25640;DHT22;13497;48.322;16.204;2024-03-17T09:53:52;11.10;95.00
25640;DHT22;13497;48.322;16.204;2024-03-17T09:56:20;11.30;94.50
25640;DHT22;13497;48.322;16.204;2024-03-17T09:58:50;11.60;94.90
25640;DHT22;13497;48.322;16.204;2024-03-17T10:01:16;11.70;94.10
25640;DHT22;13497;48.322;16.204;2024-03-17T10:03:50;11.70;93.80
25640;DHT22;13497;48.322;16.204;2024-03-17T10:06:46;11.80;93.90
25640;DHT22;13497;48.322;16.204;2024-03-17T10:09:15;11.90;93.70
25640;DHT22;13497;48.322;16.204;2024-03-17T10:11:46;11.90;93.40
25640;DHT22;13497;48.322;16.204;2024-03-17T10:14:16;12.00;93.50
25640;DHT22;13497;48.322;16.204;2024-03-17T10:16:43;11.60;93.40
25640;DHT22;13497;48.322;16.204;2024-03-17T10:19:16;11.50;93.70
25640;DHT22;13497;48.322;16.204;2024-03-17T10:21:46;11.40;93.70
25640;DHT22;13497;48.322;16.204;2024-03-17T10:24:24;11.20;94.10
25640;DHT22;13497;48.322;16.204;2024-03-17T10:29:33;11.60;93.90
25640;DHT22;13497;48.322;16.204;2024-03-17T10:32:15;11.90;94.10
25640;DHT22;13497;48.322;16.204;2024-03-17T10:34:44;11.90;93.10
25640;DHT22;13497;48.322;16.204;2024-03-17T10:37:14;12.10;93.30
25640;DHT22;13497;48.322;16.204;2024-03-17T10:39:41;12.30;93.10
25640;DHT22;13497;48.322;16.204;2024-03-17T10:42:12;12.50;93.00
25640;DHT22;13497;48.322;16.204;2024-03-17T10:44:39;12.40;92.90
25640;DHT22;13497;48.322;16.204;2024-03-17T10:47:06;12.40;92.90
25640;DHT22;13497;48.322;16.204;2024-03-17T10:49:36;12.40;92.60
25640;DHT22;13497;48.322;16.204;2024-03-17T10:52:16;12.40;93.10
25640;DHT22;13497;48.322;16.204;2024-03-17T10:54:48;12.40;93.00
25640;DHT22;13497;48.322;16.204;2024-03-17T10:59:48;12.70;92.40
25640;DHT22;13497;48.322;16.204;2024-03-17T11:02:23;12.70;92.40
25640;DHT22;13497;48.322;16.204;2024-03-17T11:04:56;12.80;92.00
25640;DHT22;13497;48.322;16.204;2024-03-17T11:07:23;12.80;91.90
25640;DHT22;13497;48.322;16.204;2024-03-17T11:09:51;12.90;92.60
25640;DHT22;13497;48.322;16.204;2024-03-17T11:15:34;13.10;91.70
25640;DHT22;13497;48.322;16.204;2024-03-17T11:20:37;12.80;91.30
25640;DHT22;13497;48.322;16.204;2024-03-17T11:23:03;12.70;91.90
25640;DHT22;13497;48.322;16.204;2024-03-17T11:28:08;12.40;92.50
25640;DHT22;13497;48.322;16.204;2024-03-17T11:30:48;12.50;92.20
25640;DHT22;13497;48.322;16.204;2024-03-17T11:47:00;12.80;91.40
25640;DHT22;13497;48.322;16.204;2024-03-17T11:49:30;12.90;91.50
25640;DHT22;13497;48.322;16.204;2024-03-17T11:51:58;12.80;91.20
25640;DHT22;13497;48.322;16.204;2024-03-17T11:54:28;12.70;91.30
25640;DHT22;13497;48.322;16.204;2024-03-17T11:56:56;12.70;91.80
25640;DHT22;13497;48.322;16.204;2024-03-17T11:59:22;12.50;91.20
25640;DHT22;13497;48.322;16.204;2024-03-17T12:01:52;12.50;91.40
25640;DHT22;13497;48.322;16.204;2024-03-17T12:04:21;12.40;91.20
25640;DHT22;13497;48.322;16.204;2024-03-17T12:06:52;12.50;91.40
25640;DHT22;13497;48.322;16.204;2024-03-17T12:09:26;12.40;91.20
25640;DHT22;13497;48.322;16.204;2024-03-17T12:12:03;12.50;91.60
25640;DHT22;13497;48.322;16.204;2024-03-17T12:14:30;12.60;91.40
25640;DHT22;13497;48.322;16.204;2024-03-17T12:16:58;12.50;91.60
25640;DHT22;13497;48.322;16.204;2024-03-17T12:19:25;12.50;91.40
25640;DHT22;13497;48.322;16.204;2024-03-17T12:21:53;12.60;91.30
25640;DHT22;13497;48.322;16.204;2024-03-17T12:24:24;12.60;91.60
25640;DHT22;13497;48.322;16.204;2024-03-17T12:26:51;12.70;91.60
25640;DHT22;13497;48.322;16.204;2024-03-17T12:32:00;13.00;91.10
25640;DHT22;13497;48.322;16.204;2024-03-17T12:34:28;13.00;91.40
25640;DHT22;13497;48.322;16.204;2024-03-17T12:36:55;13.10;91.40
25640;DHT22;13497;48.322;16.204;2024-03-17T12:39:25;13.20;90.90
25640;DHT22;13497;48.322;16.204;2024-03-17T12:42:11;13.30;91.00
25640;DHT22;13497;48.322;16.204;2024-03-17T12:47:19;13.70;91.00
25640;DHT22;13497;48.322;16.204;2024-03-17T12:52:23;13.60;90.60
25640;DHT22;13497;48.322;16.204;2024-03-17T12:55:07;13.30;90.90
25640;DHT22;13497;48.322;16.204;2024-03-17T12:57:52;13.30;90.80
25640;DHT22;13497;48.322;16.204;2024-03-17T13:00:37;13.30;91.10
25640;DHT22;13497;48.322;16.204;2024-03-17T13:03:04;13.20;90.80
25640;DHT22;13497;48.322;16.204;2024-03-17T13:05:30;13.40;91.10
25640;DHT22;13497;48.322;16.204;2024-03-17T13:07:57;13.50;90.90
25640;DHT22;13497;48.322;16.204;2024-03-17T13:10:24;13.60;90.70
25640;DHT22;13497;48.322;16.204;2024-03-17T13:12:59;13.80;90.70
25640;DHT22;13497;48.322;16.204;2024-03-17T13:15:28;14.00;90.50
25640;DHT22;13497;48.322;16.204;2024-03-17T13:18:04;14.00;89.70
25640;DHT22;13497;48.322;16.204;2024-03-17T13:20:31;13.70;90.10
25640;DHT22;13497;48.322;16.204;2024-03-17T13:22:58;13.40;90.00
25640;DHT22;13497;48.322;16.204;2024-03-17T13:25:28;13.30;90.90
25640;DHT22;13497;48.322;16.204;2024-03-17T13:28:02;13.40;90.70
25640;DHT22;13497;48.322;16.204;2024-03-17T13:30:29;13.30;90.30
25640;DHT22;13497;48.322;16.204;2024-03-17T13:32:55;13.40;91.30
25640;DHT22;13497;48.322;16.204;2024-03-17T13:35:29;13.50;90.80
25640;DHT22;13497;48.322;16.204;2024-03-17T13:37:56;13.40;90.30
25640;DHT22;13497;48.322;16.204;2024-03-17T13:40:26;13.50;90.40
25640;DHT22;13497;48.322;16.204;2024-03-17T13:42:52;13.50;90.20
25640;DHT22;13497;48.322;16.204;2024-03-17T13:45:20;13.50;90.40
25640;DHT22;13497;48.322;16.204;2024-03-17T13:47:52;13.30;90.20
25640;DHT22;13497;48.322;16.204;2024-03-17T13:50:19;13.20;90.50
25640;DHT22;13497;48.322;16.204;2024-03-17T13:52:45;13.00;90.80
25640;DHT22;13497;48.322;16.204;2024-03-17T13:55:19;13.10;90.80
25640;DHT22;13497;48.322;16.204;2024-03-17T13:57:49;13.00;90.40
25640;DHT22;13497;48.322;16.204;2024-03-17T14:00:16;13.00;90.40
25640;DHT22;13497;48.322;16.204;2024-03-17T14:02:46;13.20;90.50
25640;DHT22;13497;48.322;16.204;2024-03-17T14:05:13;13.30;90.60
25640;DHT22;13497;48.322;16.204;2024-03-17T14:07:40;13.50;90.70
25640;DHT22;13497;48.322;16.204;2024-03-17T14:10:06;13.60;90.50
25640;DHT22;13497;48.322;16.204;2024-03-17T14:12:34;13.50;90.60
25640;DHT22;13497;48.322;16.204;2024-03-17T14:15:01;13.40;90.50
25640;DHT22;13497;48.322;16.204;2024-03-17T14:17:26;13.30;90.70
25640;DHT22;13497;48.322;16.204;2024-03-17T14:19:52;13.30;90.30
25640;DHT22;13497;48.322;16.204;2024-03-17T14:22:18;13.40;90.30
25640;DHT22;13497;48.322;16.204;2024-03-17T14:24:44;13.50;90.20
25640;DHT22;13497;48.322;16.204;2024-03-17T14:27:12;13.70;90.60
25640;DHT22;13497;48.322;16.204;2024-03-17T14:29:37;13.90;90.30
25640;DHT22;13497;48.322;16.204;2024-03-17T14:32:04;14.10;90.10
25640;DHT22;13497;48.322;16.204;2024-03-17T14:34:30;14.30;90.00
25640;DHT22;13497;48.322;16.204;2024-03-17T14:37:01;14.60;89.70
25640;DHT22;13497;48.322;16.204;2024-03-17T14:39:30;14.70;87.90
25640;DHT22;13497;48.322;16.204;2024-03-17T14:41:55;14.70;87.40
25640;DHT22;13497;48.322;16.204;2024-03-17T14:44:21;14.70;87.50
25640;DHT22;13497;48.322;16.204;2024-03-17T14:46:48;14.40;87.00
25640;DHT22;13497;48.322;16.204;2024-03-17T14:49:19;14.10;88.80
25640;DHT22;13497;48.322;16.204;2024-03-17T14:51:45;13.90;89.30
25640;DHT22;13497;48.322;16.204;2024-03-17T14:54:10;13.90;89.50
25640;DHT22;13497;48.322;16.204;2024-03-17T14:56:37;13.90;89.80
25640;DHT22;13497;48.322;16.204;2024-03-17T14:59:03;14.00;89.30
25640;DHT22;13497;48.322;16.204;2024-03-17T15:01:28;13.80;89.20
25640;DHT22;13497;48.322;16.204;2024-03-17T15:03:55;13.80;89.00
25640;DHT22;13497;48.322;16.204;2024-03-17T15:06:21;13.90;89.20
25640;DHT22;13497;48.322;16.204;2024-03-17T15:08:47;13.90;88.70
25640;DHT22;13497;48.322;16.204;2024-03-17T15:11:13;13.90;88.50
25640;DHT22;13497;48.322;16.204;2024-03-17T15:13:39;13.80;88.60
25640;DHT22;13497;48.322;16.204;2024-03-17T15:16:07;13.90;89.00
25640;DHT22;13497;48.322;16.204;2024-03-17T15:18:33;13.80;89.50
25640;DHT22;13497;48.322;16.204;2024-03-17T15:21:01;13.80;89.40
25640;DHT22;13497;48.322;16.204;2024-03-17T15:23:30;13.50;89.10
25640;DHT22;13497;48.322;16.204;2024-03-17T15:26:02;13.40;89.50
25640;DHT22;13497;48.322;16.204;2024-03-17T15:28:43;13.30;89.80
25640;DHT22;13497;48.322;16.204;2024-03-17T15:31:10;13.40;90.00
25640;DHT22;13497;48.322;16.204;2024-03-17T15:33:36;13.20;89.20
25640;DHT22;13497;48.322;16.204;2024-03-17T15:36:04;13.10;90.00
25640;DHT22;13497;48.322;16.204;2024-03-17T15:38:34;12.90;89.70
25640;DHT22;13497;48.322;16.204;2024-03-17T15:41:03;12.90;90.30
25640;DHT22;13497;48.322;16.204;2024-03-17T15:43:36;13.00;90.20
25640;DHT22;13497;48.322;16.204;2024-03-17T15:46:07;13.10;90.30
25640;DHT22;13497;48.322;16.204;2024-03-17T15:48:35;13.20;90.10
25640;DHT22;13497;48.322;16.204;2024-03-17T15:51:01;13.20;89.80
25640;DHT22;13497;48.322;16.204;2024-03-17T15:53:27;13.20;89.90
25640;DHT22;13497;48.322;16.204;2024-03-17T15:55:57;13.10;89.40
25640;DHT22;13497;48.322;16.204;2024-03-17T15:58:23;12.90;89.60
25640;DHT22;13497;48.322;16.204;2024-03-17T16:00:49;12.90;90.30
25640;DHT22;13497;48.322;16.204;2024-03-17T16:03:15;12.90;90.10